Time;durP1;ratioP1;P1;durP2;ratioP2;P2;SDS_P1;SDS_P2;PMS_P1;PMS_P2;Temp;Humidity;BMP_temperature;BMP_pressure;BME280_temperature;BME280_humidity;BME280_pressure;Samples;Min_cycle;Max_cycle;Signal;HPM_P1;HPM_P2
2023/02/14 00:02:30;;;;;;;50.20;27.50;;;;;;;;;;5036335;28;20025;-76
2023/02/14 00:05:15;;;;;;;52.38;27.80;;;;;;;;;;5035594;28;20021;-73
2023/02/14 00:08:01;;;;;;;56.10;27.52;;;;;;;;;;5035905;28;20096;-77
2023/02/14 00:10:46;;;;;;;50.38;26.40;;;;;;;;;;5035735;28;20446;-74
2023/02/14 00:13:32;;;;;;;52.08;27.00;;;;;;;;;;5035937;28;20102;-76
2023/02/14 00:16:18;;;;;;;51.08;27.15;;;;;;;;;;5034665;28;20045;-75
2023/02/14 00:19:03;;;;;;;47.75;26.83;;;;;;;;;;5034708;28;20095;-75
2023/02/14 00:21:49;;;;;;;48.78;25.98;;;;;;;;;;5035147;28;20057;-75
2023/02/14 00:24:34;;;;;;;50.30;26.73;;;;;;;;;;5036070;28;20027;-76
2023/02/14 00:27:20;;;;;;;49.10;27.20;;;;;;;;;;5035906;28;20036;-75
2023/02/14 00:30:06;;;;;;;48.80;27.52;;;;;;;;;;5036221;28;20030;-76
2023/02/14 00:32:52;;;;;;;48.85;26.73;;;;;;;;;;4997723;28;1124070;-75
2023/02/14 00:35:38;;;;;;;44.55;25.55;;;;;;;;;;5037161;28;20045;-76
2023/02/14 00:38:23;;;;;;;47.83;25.73;;;;;;;;;;5037262;28;20032;-75
2023/02/14 00:41:09;;;;;;;44.38;25.10;;;;;;;;;;5035821;28;20017;-74
2023/02/14 00:43:54;;;;;;;44.28;25.58;;;;;;;;;;5036831;28;20014;-76
2023/02/14 00:46:40;;;;;;;50.90;25.77;;;;;;;;;;5037544;28;20053;-76
2023/02/14 00:49:25;;;;;;;44.95;24.40;;;;;;;;;;5037072;28;20083;-75
2023/02/14 00:52:11;;;;;;;49.35;26.13;;;;;;;;;;5034754;28;20473;-75
2023/02/14 00:54:57;;;;;;;49.95;26.63;;;;;;;;;;5037207;28;20087;-75
2023/02/14 00:57:43;;;;;;;46.22;25.77;;;;;;;;;;5035813;28;20449;-75
2023/02/14 01:00:28;;;;;;;47.45;25.83;;;;;;;;;;5036272;28;20017;-75
2023/02/14 01:03:14;;;;;;;47.50;25.80;;;;;;;;;;5036161;28;20013;-75
2023/02/14 01:06:00;;;;;;;46.50;24.58;;;;;;;;;;5036607;28;20017;-75
2023/02/14 01:08:45;;;;;;;48.00;25.30;;;;;;;;;;5036424;28;20408;-75
2023/02/14 01:11:31;;;;;;;45.15;24.77;;;;;;;;;;5035990;28;20018;-76
2023/02/14 01:14:16;;;;;;;44.05;24.95;;;;;;;;;;5036842;28;20021;-76
2023/02/14 01:17:02;;;;;;;46.45;24.73;;;;;;;;;;5035099;28;20014;-76
2023/02/14 01:19:50;;;;;;;48.05;24.27;;;;;;;;;;5035719;28;20017;-75
2023/02/14 01:22:36;;;;;;;46.53;25.77;;;;;;;;;;5036083;28;20084;-75
2023/02/14 01:25:22;;;;;;;46.33;24.95;;;;;;;;;;5035308;28;20454;-75
2023/02/14 01:28:07;;;;;;;49.35;25.92;;;;;;;;;;5036105;28;20063;-75
2023/02/14 01:30:53;;;;;;;45.78;24.85;;;;;;;;;;5034461;28;20040;-76
2023/02/14 01:33:39;;;;;;;48.17;25.67;;;;;;;;;;5034479;28;20192;-76
2023/02/14 01:36:25;;;;;;;48.38;25.35;;;;;;;;;;5036316;28;20523;-75
2023/02/14 01:39:12;;;;;;;45.22;24.90;;;;;;;;;;5034219;28;20049;-76
2023/02/14 01:41:58;;;;;;;48.08;26.35;;;;;;;;;;5035588;28;20029;-76
2023/02/14 01:44:43;;;;;;;48.55;25.50;;;;;;;;;;5034029;28;20100;-75
2023/02/14 01:47:30;;;;;;;48.95;26.23;;;;;;;;;;5034170;28;20053;-76
2023/02/14 01:50:21;;;;;;;44.33;24.35;;;;;;;;;;5034870;28;20445;-76
2023/02/14 01:53:18;;;;;;;46.05;24.33;;;;;;;;;;5035875;28;20080;-75
2023/02/14 01:56:06;;;;;;;48.35;25.55;;;;;;;;;;5035903;28;20032;-76
2023/02/14 01:58:55;;;;;;;46.00;24.80;;;;;;;;;;5036267;28;20079;-75
2023/02/14 02:01:40;;;;;;;44.35;24.58;;;;;;;;;;5035299;28;20032;-76
2023/02/14 02:04:33;;;;;;;46.05;25.10;;;;;;;;;;5035519;28;20029;-75
2023/02/14 02:07:21;;;;;;;51.35;26.75;;;;;;;;;;5034447;28;20112;-76
2023/02/14 02:10:07;;;;;;;49.47;26.17;;;;;;;;;;5034574;28;20029;-76
2023/02/14 02:12:53;;;;;;;49.65;26.35;;;;;;;;;;5034188;28;20025;-75
2023/02/14 02:15:45;;;;;;;48.38;26.40;;;;;;;;;;5033947;28;20025;-75
2023/02/14 02:18:46;;;;;;;51.10;26.15;;;;;;;;;;5036276;28;20021;-75
2023/02/14 02:21:55;;;;;;;51.22;25.52;;;;;;;;;;5034156;28;20017;-75
2023/02/14 02:24:53;;;;;;;48.22;24.90;;;;;;;;;;5034659;28;20037;-75
2023/02/14 02:28:02;;;;;;;47.08;25.20;;;;;;;;;;5035263;28;20037;-76
2023/02/14 02:30:51;;;;;;;48.95;25.23;;;;;;;;;;5034120;28;20041;-75
2023/02/14 02:33:37;;;;;;;49.25;25.02;;;;;;;;;;5033454;28;20081;-75
2023/02/14 02:36:36;;;;;;;49.47;25.38;;;;;;;;;;5033781;28;20324;-75
2023/02/14 02:39:24;;;;;;;44.88;24.30;;;;;;;;;;5033785;28;20025;-76
2023/02/14 02:42:29;;;;;;;45.38;25.02;;;;;;;;;;5032947;28;20172;-76
2023/02/14 02:45:29;;;;;;;48.35;25.17;;;;;;;;;;5034644;28;20424;-75
2023/02/14 02:48:17;;;;;;;44.30;24.38;;;;;;;;;;5036128;28;20052;-75
2023/02/14 02:54:15;;;;;;;43.47;24.17;;;;;;;;;;5033749;28;20070;-76
2023/02/14 02:57:02;;;;;;;44.58;24.23;;;;;;;;;;5034828;28;20017;-75
2023/02/14 02:59:48;;;;;;;49.13;24.77;;;;;;;;;;5034678;28;20048;-77
2023/02/14 03:04:46;;;;;;;47.67;24.27;;;;;;;;;;5035546;28;20025;-76
2023/02/14 03:05:43;;;;;;;40.55;23.20;;;;;;;;;;5036254;28;20036;-75
2023/02/14 03:08:28;;;;;;;47.35;24.15;;;;;;;;;;5035361;28;20466;-76
2023/02/14 03:11:14;;;;;;;47.70;24.50;;;;;;;;;;5032908;28;20029;-76
2023/02/14 03:14:26;;;;;;;44.70;23.88;;;;;;;;;;5034352;28;20021;-76
2023/02/14 03:20:16;;;;;;;46.03;24.40;;;;;;;;;;5034000;28;20030;-75
2023/02/14 03:23:12;;;;;;;46.53;24.73;;;;;;;;;;5033756;28;20021;-76
2023/02/14 03:26:16;;;;;;;48.67;24.10;;;;;;;;;;5035512;28;20018;-76
2023/02/14 03:29:20;;;;;;;43.53;23.23;;;;;;;;;;5034641;28;20436;-76
2023/02/14 03:32:10;;;;;;;44.83;24.23;;;;;;;;;;5032900;28;20049;-75
2023/02/14 03:34:56;;;;;;;45.47;24.60;;;;;;;;;;5038188;28;20331;-76
2023/02/14 03:37:54;;;;;;;47.05;24.25;;;;;;;;;;5042703;28;20014;-76
2023/02/14 03:40:57;;;;;;;48.03;25.42;;;;;;;;;;5042286;28;20037;-75
2023/02/14 03:43:45;;;;;;;41.00;24.17;;;;;;;;;;5041508;28;20066;-74
2023/02/14 03:46:43;;;;;;;46.30;24.67;;;;;;;;;;5037746;28;20180;-76
2023/02/14 03:49:31;;;;;;;46.50;24.45;;;;;;;;;;5035073;28;20017;-76
2023/02/14 03:52:17;;;;;;;46.63;25.30;;;;;;;;;;5034225;28;20017;-76
2023/02/14 03:55:04;;;;;;;47.50;25.13;;;;;;;;;;5036928;28;20025;-76
2023/02/14 03:58:10;;;;;;;44.10;24.80;;;;;;;;;;5037864;28;20025;-74
2023/02/14 04:01:01;;;;;;;49.58;25.23;;;;;;;;;;5037057;28;20100;-76
2023/02/14 04:03:49;;;;;;;42.55;23.42;;;;;;;;;;5037809;28;20095;-75
2023/02/14 04:06:34;;;;;;;45.65;24.08;;;;;;;;;;5037659;28;20017;-76
2023/02/14 04:09:20;;;;;;;47.40;26.08;;;;;;;;;;5037760;28;20441;-75
2023/02/14 04:12:06;;;;;;;49.50;25.38;;;;;;;;;;5036808;28;20323;-75
2023/02/14 04:14:51;;;;;;;48.53;26.63;;;;;;;;;;5037424;28;20022;-76
2023/02/14 04:20:41;;;;;;;46.03;24.42;;;;;;;;;;5036133;28;20026;-75
2023/02/14 04:23:27;;;;;;;43.58;24.08;;;;;;;;;;5037922;28;20040;-76
2023/02/14 04:26:13;;;;;;;44.55;23.50;;;;;;;;;;5036728;28;20013;-76
2023/02/14 04:28:58;;;;;;;48.40;25.30;;;;;;;;;;5036579;28;20032;-76
2023/02/14 04:31:44;;;;;;;45.97;24.80;;;;;;;;;;5036548;28;20470;-77
2023/02/14 04:34:29;;;;;;;47.70;24.95;;;;;;;;;;5036742;28;20101;-77
2023/02/14 04:37:16;;;;;;;50.08;25.15;;;;;;;;;;5037193;28;20025;-76
2023/02/14 04:40:01;;;;;;;47.20;24.30;;;;;;;;;;5037104;28;20021;-75
2023/02/14 04:42:47;;;;;;;46.53;23.75;;;;;;;;;;5035838;28;20033;-77
2023/02/14 04:45:33;;;;;;;47.42;25.00;;;;;;;;;;5035745;28;20024;-76
2023/02/14 04:48:18;;;;;;;47.63;25.45;;;;;;;;;;5037070;28;20040;-75
2023/02/14 04:51:04;;;;;;;50.55;26.00;;;;;;;;;;5036885;28;20106;-76
2023/02/14 04:53:49;;;;;;;49.35;25.48;;;;;;;;;;5036792;28;20021;-77
2023/02/14 04:56:35;;;;;;;48.38;24.48;;;;;;;;;;5036537;28;20028;-76
2023/02/14 04:59:21;;;;;;;54.83;27.48;;;;;;;;;;5035331;28;20428;-76
2023/02/14 05:02:07;;;;;;;56.17;27.20;;;;;;;;;;5036237;28;20026;-74
2023/02/14 05:04:52;;;;;;;54.55;27.05;;;;;;;;;;5036491;28;20109;-75
2023/02/14 05:07:38;;;;;;;57.80;26.92;;;;;;;;;;5034449;28;20464;-73
2023/02/14 05:10:28;;;;;;;49.42;25.25;;;;;;;;;;5038028;28;20104;-77
2023/02/14 05:13:13;;;;;;;50.63;26.33;;;;;;;;;;5036461;28;20067;-77
2023/02/14 05:16:02;;;;;;;48.05;24.95;;;;;;;;;;5035373;28;20054;-76
2023/02/14 05:18:47;;;;;;;50.85;25.85;;;;;;;;;;5035553;28;20013;-75
2023/02/14 05:21:33;;;;;;;48.15;25.48;;;;;;;;;;5036090;28;20458;-79
2023/02/14 05:24:19;;;;;;;54.08;26.30;;;;;;;;;;5036666;28;20104;-76
2023/02/14 05:27:04;;;;;;;48.08;25.08;;;;;;;;;;5036830;28;20037;-76
2023/02/14 05:29:50;;;;;;;50.95;24.77;;;;;;;;;;5035797;28;20040;-76
2023/02/14 05:32:35;;;;;;;48.53;25.35;;;;;;;;;;5034528;28;20518;-76
2023/02/14 05:35:21;;;;;;;49.22;24.85;;;;;;;;;;5036200;28;20105;-76
2023/02/14 05:38:07;;;;;;;45.53;23.90;;;;;;;;;;5037080;28;20053;-76
2023/02/14 05:40:52;;;;;;;49.30;24.73;;;;;;;;;;5036306;28;20044;-78
2023/02/14 05:43:38;;;;;;;47.28;24.80;;;;;;;;;;5035200;28;20036;-77
2023/02/14 05:46:24;;;;;;;47.20;24.42;;;;;;;;;;5034495;28;20022;-77
2023/02/14 05:49:09;;;;;;;50.95;24.92;;;;;;;;;;5035522;28;20106;-79
2023/02/14 05:51:55;;;;;;;52.17;25.23;;;;;;;;;;5034857;28;20029;-78
2023/02/14 05:54:40;;;;;;;47.40;24.65;;;;;;;;;;5033689;28;20323;-77
2023/02/14 05:57:26;;;;;;;47.33;25.17;;;;;;;;;;5035428;28;20440;-78
2023/02/14 06:00:12;;;;;;;49.65;23.90;;;;;;;;;;5034292;28;20330;-78
2023/02/14 06:02:57;;;;;;;48.63;24.60;;;;;;;;;;5035282;28;20105;-78
2023/02/14 06:05:43;;;;;;;49.70;24.63;;;;;;;;;;5034031;28;20021;-78
2023/02/14 06:08:29;;;;;;;47.55;23.83;;;;;;;;;;5035207;28;20017;-78
2023/02/14 06:11:14;;;;;;;46.45;23.83;;;;;;;;;;5033427;28;20027;-79
2023/02/14 06:14:00;;;;;;;45.30;24.13;;;;;;;;;;5035848;28;20021;-80
2023/02/14 06:16:46;;;;;;;52.10;25.73;;;;;;;;;;5033595;28;20101;-78
2023/02/14 06:19:31;;;;;;;45.15;24.88;;;;;;;;;;5034007;28;20028;-78
2023/02/14 06:22:17;;;;;;;49.60;25.15;;;;;;;;;;5034047;28;20037;-77
2023/02/14 06:25:05;;;;;;;49.05;25.38;;;;;;;;;;5033162;28;20022;-79
2023/02/14 06:27:54;;;;;;;49.88;24.27;;;;;;;;;;5033864;28;20446;-78
2023/02/14 06:30:40;;;;;;;45.95;23.90;;;;;;;;;;5034317;28;20057;-78
2023/02/14 06:33:25;;;;;;;51.40;24.75;;;;;;;;;;5035314;28;20101;-77
2023/02/14 06:36:11;;;;;;;56.63;25.85;;;;;;;;;;5035126;28;20018;-77
2023/02/14 06:38:57;;;;;;;48.03;25.00;;;;;;;;;;5034932;28;20013;-77
2023/02/14 06:41:42;;;;;;;49.13;25.33;;;;;;;;;;5033029;28;20017;-77
2023/02/14 06:44:28;;;;;;;47.05;23.77;;;;;;;;;;5034844;28;20083;-77
2023/02/14 06:47:13;;;;;;;46.70;24.45;;;;;;;;;;5034167;28;20017;-76
2023/02/14 06:50:00;;;;;;;48.03;24.75;;;;;;;;;;5034342;28;20021;-78
2023/02/14 06:52:46;;;;;;;51.65;25.88;;;;;;;;;;5034519;28;20025;-77
2023/02/14 06:55:31;;;;;;;51.67;25.75;;;;;;;;;;5034764;28;20064;-78
2023/02/14 06:58:17;;;;;;;52.58;26.65;;;;;;;;;;5034608;28;20108;-78
2023/02/14 07:01:03;;;;;;;52.53;25.45;;;;;;;;;;5034647;28;21443;-78
2023/02/14 07:03:48;;;;;;;52.60;27.33;;;;;;;;;;5033967;28;20124;-77
2023/02/14 07:06:35;;;;;;;47.50;25.08;;;;;;;;;;5034967;28;20393;-78
2023/02/14 07:09:21;;;;;;;49.88;26.15;;;;;;;;;;5034736;28;20026;-76
2023/02/14 07:12:06;;;;;;;53.22;26.80;;;;;;;;;;5033249;28;20025;-76
2023/02/14 07:14:52;;;;;;;48.13;26.38;;;;;;;;;;5033298;28;20154;-75
2023/02/14 07:17:38;;;;;;;55.20;27.70;;;;;;;;;;5034337;28;20017;-73
2023/02/14 07:20:23;;;;;;;52.97;27.95;;;;;;;;;;5034070;28;20020;-75
2023/02/14 07:23:09;;;;;;;55.35;28.40;;;;;;;;;;5033770;28;20354;-74
2023/02/14 07:25:55;;;;;;;57.53;28.65;;;;;;;;;;5033665;28;20485;-74
2023/02/14 07:28:41;;;;;;;58.13;30.85;;;;;;;;;;5035365;28;20347;-74
2023/02/14 07:31:27;;;;;;;59.75;31.30;;;;;;;;;;5038141;28;20433;-74
2023/02/14 07:34:12;;;;;;;68.15;34.97;;;;;;;;;;5037890;28;20017;-74
2023/02/14 07:36:58;;;;;;;65.63;34.45;;;;;;;;;;5038791;28;20100;-74
2023/02/14 07:39:46;;;;;;;65.22;34.70;;;;;;;;;;5040767;28;20053;-74
2023/02/14 07:42:33;;;;;;;69.03;36.47;;;;;;;;;;5037097;28;20025;-74
2023/02/14 07:45:18;;;;;;;65.20;31.83;;;;;;;;;;5037215;28;20453;-74
2023/02/14 07:48:04;;;;;;;60.58;31.83;;;;;;;;;;5037975;28;20021;-74
2023/02/14 07:50:50;;;;;;;61.22;32.42;;;;;;;;;;5038584;28;20034;-74
2023/02/14 07:53:36;;;;;;;59.33;32.58;;;;;;;;;;5044580;28;20045;-73
2023/02/14 07:56:21;;;;;;;88.38;45.33;;;;;;;;;;5044511;28;20029;-73
2023/02/14 07:59:07;;;;;;;60.72;32.10;;;;;;;;;;5039446;28;20029;-75
2023/02/14 08:01:52;;;;;;;57.75;31.75;;;;;;;;;;5039224;28;20030;-75
2023/02/14 08:04:38;;;;;;;55.80;30.15;;;;;;;;;;5036636;28;20017;-75
2023/02/14 08:07:24;;;;;;;54.45;29.10;;;;;;;;;;5038189;28;20338;-74
2023/02/14 08:10:13;;;;;;;56.90;29.30;;;;;;;;;;5037182;28;20430;-76
2023/02/14 08:12:58;;;;;;;53.70;29.25;;;;;;;;;;5038121;28;20026;-74
2023/02/14 08:18:48;;;;;;;54.40;29.58;;;;;;;;;;5036836;28;20028;-75
2023/02/14 08:21:34;;;;;;;48.75;27.10;;;;;;;;;;5037144;28;20021;-74
2023/02/14 08:24:19;;;;;;;46.17;26.23;;;;;;;;;;5036643;28;20065;-74
2023/02/14 08:27:05;;;;;;;54.85;28.98;;;;;;;;;;5037507;28;20104;-75
2023/02/14 08:29:50;;;;;;;47.50;26.92;;;;;;;;;;5037809;28;20021;-73
2023/02/14 08:32:36;;;;;;;51.30;27.88;;;;;;;;;;5041635;28;20045;-74
2023/02/14 08:35:22;;;;;;;49.33;27.58;;;;;;;;;;5043757;28;20420;-73
2023/02/14 08:38:07;;;;;;;49.38;27.85;;;;;;;;;;5049308;28;20096;-76
2023/02/14 08:40:53;;;;;;;50.28;28.40;;;;;;;;;;5042850;28;20025;-73
2023/02/14 08:43:39;;;;;;;60.63;33.13;;;;;;;;;;5038036;28;20021;-75
2023/02/14 08:46:27;;;;;;;55.67;28.85;;;;;;;;;;5038253;28;20029;-73
2023/02/14 08:49:13;;;;;;;75.75;37.95;;;;;;;;;;5042139;28;20070;-73
2023/02/14 08:51:59;;;;;;;56.65;28.00;;;;;;;;;;5042217;28;20021;-73
2023/02/14 08:54:44;;;;;;;49.22;26.05;;;;;;;;;;5039856;28;20017;-74
2023/02/14 08:57:30;;;;;;;45.72;25.83;;;;;;;;;;5036968;28;20013;-74
2023/02/14 09:00:16;;;;;;;46.45;27.45;;;;;;;;;;5036540;28;20018;-73
2023/02/14 09:03:01;;;;;;;47.20;27.08;;;;;;;;;;5035825;28;20091;-74
2023/02/14 09:05:47;;;;;;;49.35;29.00;;;;;;;;;;5035064;28;20130;-75
2023/02/14 09:08:33;;;;;;;53.22;28.67;;;;;;;;;;5035691;28;20021;-73
2023/02/14 09:11:21;;;;;;;47.10;27.45;;;;;;;;;;5036713;28;20021;-74
2023/02/14 09:14:06;;;;;;;46.53;25.73;;;;;;;;;;5036068;28;20029;-74
2023/02/14 09:16:52;;;;;;;43.97;26.00;;;;;;;;;;5035093;28;20087;-73
2023/02/14 09:19:38;;;;;;;45.33;26.90;;;;;;;;;;5036259;28;20021;-75
2023/02/14 09:22:23;;;;;;;47.75;26.33;;;;;;;;;;5036459;28;20030;-73
2023/02/14 09:25:09;;;;;;;50.17;26.75;;;;;;;;;;5036104;28;20025;-74
2023/02/14 09:27:55;;;;;;;47.15;26.50;;;;;;;;;;5035547;28;20040;-74
2023/02/14 09:30:40;;;;;;;45.47;25.00;;;;;;;;;;5035921;28;20025;-76
2023/02/14 09:33:29;;;;;;;43.25;25.63;;;;;;;;;;5035452;28;20041;-75
2023/02/14 09:39:19;;;;;;;45.17;25.77;;;;;;;;;;5034947;28;20010;-75
2023/02/14 09:42:18;;;;;;;45.17;25.23;;;;;;;;;;5036414;28;20033;-75
2023/02/14 09:45:10;;;;;;;43.80;25.45;;;;;;;;;;5035914;28;20047;-75
2023/02/14 09:48:01;;;;;;;43.75;24.75;;;;;;;;;;5036455;28;20092;-74
2023/02/14 09:50:47;;;;;;;43.25;25.33;;;;;;;;;;5034770;28;20035;-74
2023/02/14 09:53:39;;;;;;;41.50;24.52;;;;;;;;;;5035230;28;20020;-75
2023/02/14 09:56:30;;;;;;;50.25;25.80;;;;;;;;;;5036989;28;20025;-76
2023/02/14 09:59:24;;;;;;;42.67;24.33;;;;;;;;;;5035978;28;20151;-74
2023/02/14 10:02:16;;;;;;;40.38;23.38;;;;;;;;;;5033602;28;20018;-76
2023/02/14 10:05:13;;;;;;;39.22;23.55;;;;;;;;;;5036535;28;20029;-74
2023/02/14 10:08:04;;;;;;;42.25;24.08;;;;;;;;;;5035329;28;20025;-75
2023/02/14 10:10:58;;;;;;;46.75;25.85;;;;;;;;;;5034180;28;20064;-77
2023/02/14 10:13:46;;;;;;;47.20;24.42;;;;;;;;;;5034304;28;20021;-76
2023/02/14 10:16:37;;;;;;;42.50;23.42;;;;;;;;;;5034533;28;20037;-75
2023/02/14 10:19:23;;;;;;;40.33;23.73;;;;;;;;;;5033772;28;20083;-75
2023/02/14 10:22:11;;;;;;;39.58;24.15;;;;;;;;;;5034228;28;20117;-77
2023/02/14 10:25:01;;;;;;;42.80;24.27;;;;;;;;;;5035552;28;20185;-76
2023/02/14 10:27:47;;;;;;;43.75;24.95;;;;;;;;;;5035089;28;20425;-74
2023/02/14 10:30:36;;;;;;;46.42;24.77;;;;;;;;;;5035471;28;20021;-75
2023/02/14 10:33:26;;;;;;;40.17;23.58;;;;;;;;;;5035833;28;20045;-74
2023/02/14 10:36:20;;;;;;;38.38;23.35;;;;;;;;;;5035062;28;20045;-75
2023/02/14 10:39:15;;;;;;;43.13;24.60;;;;;;;;;;5036853;28;20021;-73
2023/02/14 10:42:13;;;;;;;38.25;23.40;;;;;;;;;;5033770;28;20021;-75
2023/02/14 10:45:01;;;;;;;42.33;23.30;;;;;;;;;;5033338;28;20032;-75
2023/02/14 10:47:59;;;;;;;42.83;24.27;;;;;;;;;;5037638;28;20033;-74
2023/02/14 10:50:54;;;;;;;42.47;24.42;;;;;;;;;;5034894;28;20025;-74
2023/02/14 10:53:43;;;;;;;42.45;24.75;;;;;;;;;;5035085;28;20013;-75
2023/02/14 10:56:34;;;;;;;43.78;23.65;;;;;;;;;;5033159;28;20025;-75
2023/02/14 10:59:20;;;;;;;42.67;24.90;;;;;;;;;;5035249;28;20052;-74
2023/02/14 11:02:10;;;;;;;41.45;23.75;;;;;;;;;;5034794;28;20346;-75
2023/02/14 11:04:58;;;;;;;40.72;24.90;;;;;;;;;;5039409;28;20017;-75
2023/02/14 11:07:44;;;;;;;40.80;24.40;;;;;;;;;;5038727;28;20021;-74
2023/02/14 11:10:31;;;;;;;38.58;23.08;;;;;;;;;;5038622;28;20091;-75
2023/02/14 11:13:36;;;;;;;42.63;23.30;;;;;;;;;;5039165;28;20017;-75
2023/02/14 11:16:34;;;;;;;42.25;24.35;;;;;;;;;;5039933;28;20029;-74
2023/02/14 11:19:35;;;;;;;44.55;25.08;;;;;;;;;;5039317;28;20017;-74
2023/02/14 11:22:27;;;;;;;42.38;25.15;;;;;;;;;;5040212;28;20088;-74
2023/02/14 11:25:21;;;;;;;40.38;23.50;;;;;;;;;;5039533;28;20055;-76
2023/02/14 11:28:12;;;;;;;42.75;23.98;;;;;;;;;;5040777;28;20468;-74
2023/02/14 11:30:58;;;;;;;38.65;22.98;;;;;;;;;;5040599;28;20017;-74
2023/02/14 11:34:07;;;;;;;38.03;23.38;;;;;;;;;;5038772;28;20110;-77
2023/02/14 11:37:05;;;;;;;36.97;22.27;;;;;;;;;;5037326;28;20033;-76
2023/02/14 11:39:53;;;;;;;44.80;23.67;;;;;;;;;;5037578;28;20102;-75
2023/02/14 11:42:43;;;;;;;35.47;21.90;;;;;;;;;;5039422;28;20032;-76
2023/02/14 11:45:36;;;;;;;36.83;22.13;;;;;;;;;;5038550;28;20085;-77
2023/02/14 11:48:23;;;;;;;36.50;22.45;;;;;;;;;;5038553;28;20025;-76
2023/02/14 11:51:12;;;;;;;39.75;22.58;;;;;;;;;;5037862;28;20458;-76
2023/02/14 11:54:02;;;;;;;37.97;22.90;;;;;;;;;;5038717;28;20076;-74
2023/02/14 11:56:52;;;;;;;41.45;24.17;;;;;;;;;;5037485;28;20112;-75
2023/02/14 11:59:45;;;;;;;39.20;24.13;;;;;;;;;;5037391;28;20021;-74
2023/02/14 12:02:39;;;;;;;45.42;24.80;;;;;;;;;;5037676;28;20030;-76
2023/02/14 12:05:35;;;;;;;45.50;24.73;;;;;;;;;;5036706;28;20354;-76
2023/02/14 12:08:24;;;;;;;41.42;24.92;;;;;;;;;;5036880;28;20025;-76
2023/02/14 12:11:21;;;;;;;44.35;26.67;;;;;;;;;;5036278;28;20120;-75
2023/02/14 12:14:18;;;;;;;46.67;25.45;;;;;;;;;;5037002;28;20104;-75
2023/02/14 12:17:04;;;;;;;43.33;25.75;;;;;;;;;;5036494;28;20018;-76
2023/02/14 12:20:08;;;;;;;54.50;28.30;;;;;;;;;;5035987;28;20036;-77
2023/02/14 12:22:56;;;;;;;43.47;26.83;;;;;;;;;;5036563;28;20207;-77
2023/02/14 12:25:42;;;;;;;45.70;27.80;;;;;;;;;;5037553;28;20021;-76
2023/02/14 12:28:33;;;;;;;46.10;27.88;;;;;;;;;;5037486;28;20434;-77
2023/02/14 12:31:19;;;;;;;53.38;29.50;;;;;;;;;;5036552;28;20057;-76
2023/02/14 12:34:05;;;;;;;51.25;29.77;;;;;;;;;;5037250;28;20091;-76
2023/02/14 12:37:01;;;;;;;46.88;27.95;;;;;;;;;;5037241;28;20032;-76
2023/02/14 12:39:53;;;;;;;47.25;28.98;;;;;;;;;;5035737;28;20028;-77
2023/02/14 12:42:54;;;;;;;50.97;28.52;;;;;;;;;;5042533;28;20429;-76
2023/02/14 12:45:58;;;;;;;47.38;28.27;;;;;;;;;;5040289;28;20032;-76
2023/02/14 12:49:02;;;;;;;48.80;28.67;;;;;;;;;;5045415;28;20116;-76
2023/02/14 12:52:02;;;;;;;51.65;28.80;;;;;;;;;;5036760;28;20033;-73
2023/02/14 12:54:53;;;;;;;48.45;29.08;;;;;;;;;;5037164;28;20063;-74
2023/02/14 12:58:00;;;;;;;50.38;28.88;;;;;;;;;;5036955;28;20025;-73
2023/02/14 13:00:49;;;;;;;48.38;29.05;;;;;;;;;;5035551;28;20075;-74
2023/02/14 13:03:43;;;;;;;52.47;29.60;;;;;;;;;;5036861;28;20092;-73
2023/02/14 13:06:34;;;;;;;55.90;31.80;;;;;;;;;;5036763;28;20022;-74
2023/02/14 13:09:58;;;;;;;51.47;31.70;;;;;;;;;;5036154;28;20026;-74
2023/02/14 13:12:49;;;;;;;57.88;31.65;;;;;;;;;;4997139;28;20372;-73
2023/02/14 13:15:39;;;;;;;60.97;32.83;;;;;;;;;;4996394;28;20023;-73
2023/02/14 13:18:47;;;;;;;58.20;33.10;;;;;;;;;;5037954;28;20029;-73
2023/02/14 13:21:34;;;;;;;52.72;31.85;;;;;;;;;;5071372;28;20531;-74
2023/02/14 13:24:34;;;;;;;49.28;29.63;;;;;;;;;;5074996;28;20471;-73
2023/02/14 13:27:35;;;;;;;54.47;30.73;;;;;;;;;;5073637;28;20407;-74
2023/02/14 13:30:20;;;;;;;56.22;32.65;;;;;;;;;;5073030;28;20476;-73
2023/02/14 13:33:24;;;;;;;58.55;34.15;;;;;;;;;;5073823;28;20044;-73
2023/02/14 13:36:11;;;;;;;62.42;36.33;;;;;;;;;;5073634;28;20031;-73
2023/02/14 13:38:58;;;;;;;62.40;35.05;;;;;;;;;;5073695;28;20016;-75
2023/02/14 13:41:43;;;;;;;56.50;33.35;;;;;;;;;;5073994;28;20021;-74
2023/02/14 13:44:48;;;;;;;56.05;33.28;;;;;;;;;;5073853;28;20077;-73
2023/02/14 13:47:34;;;;;;;53.90;32.38;;;;;;;;;;5075426;28;20040;-72
2023/02/14 13:50:20;;;;;;;52.75;31.60;;;;;;;;;;5073544;28;20502;-73
2023/02/14 13:53:12;;;;;;;52.50;30.15;;;;;;;;;;5079462;28;20054;-73
2023/02/14 13:55:58;;;;;;;49.15;29.92;;;;;;;;;;5081370;28;20457;-73
2023/02/14 13:58:52;;;;;;;49.20;28.85;;;;;;;;;;5074943;28;20028;-73
2023/02/14 14:01:46;;;;;;;52.92;30.23;;;;;;;;;;5073687;28;20028;-72
2023/02/14 14:04:33;;;;;;;49.83;28.83;;;;;;;;;;5073812;28;20020;-73
2023/02/14 14:07:21;;;;;;;53.60;29.98;;;;;;;;;;5074240;28;20044;-73
2023/02/14 14:10:10;;;;;;;49.85;28.02;;;;;;;;;;5074457;28;20128;-74
2023/02/14 14:12:56;;;;;;;48.33;28.85;;;;;;;;;;5074168;28;20035;-73
2023/02/14 14:16:02;;;;;;;49.13;29.42;;;;;;;;;;5073317;28;20031;-74
2023/02/14 14:18:48;;;;;;;50.58;29.73;;;;;;;;;;5073688;28;20354;-72
2023/02/14 14:21:39;;;;;;;48.55;28.63;;;;;;;;;;5074143;28;20369;-72
2023/02/14 14:24:32;;;;;;;46.45;27.48;;;;;;;;;;5073199;28;20365;-72
2023/02/14 14:27:26;;;;;;;48.90;28.25;;;;;;;;;;5072702;28;20035;-71
2023/02/14 14:30:29;;;;;;;46.15;26.33;;;;;;;;;;5072903;28;20107;-72
2023/02/14 14:33:36;;;;;;;48.85;28.45;;;;;;;;;;5072731;28;20040;-73
2023/02/14 14:36:22;;;;;;;50.45;28.63;;;;;;;;;;5073394;28;20111;-74
2023/02/14 14:39:08;;;;;;;55.90;30.70;;;;;;;;;;5072443;28;20074;-73
2023/02/14 14:41:55;;;;;;;49.33;27.00;;;;;;;;;;5079496;28;20427;-71
2023/02/14 14:44:49;;;;;;;48.67;29.40;;;;;;;;;;5081351;28;20107;-72
2023/02/14 14:47:39;;;;;;;50.72;28.38;;;;;;;;;;5078094;28;20052;-73
2023/02/14 14:50:26;;;;;;;53.08;30.02;;;;;;;;;;5072828;28;20021;-72
2023/02/14 14:53:24;;;;;;;51.28;29.33;;;;;;;;;;5073136;28;20384;-73
2023/02/14 14:56:30;;;;;;;57.83;31.38;;;;;;;;;;5073006;28;20440;-73
2023/02/14 14:59:18;;;;;;;56.72;31.20;;;;;;;;;;5073578;28;20074;-72
2023/02/14 15:02:19;;;;;;;61.00;31.80;;;;;;;;;;5073845;28;20028;-74
2023/02/14 15:05:16;;;;;;;54.70;32.33;;;;;;;;;;5074426;28;20456;-72
2023/02/14 15:08:20;;;;;;;60.85;32.70;;;;;;;;;;5073120;28;20438;-75
2023/02/14 15:11:09;;;;;;;60.95;33.67;;;;;;;;;;5073511;28;20047;-73
2023/02/14 15:13:57;;;;;;;62.17;33.47;;;;;;;;;;5073264;28;20021;-75
2023/02/14 15:16:59;;;;;;;63.90;33.60;;;;;;;;;;5072994;28;20021;-73
2023/02/14 15:19:47;;;;;;;59.88;30.75;;;;;;;;;;5074324;28;20158;-73
2023/02/14 15:22:44;;;;;;;52.35;29.35;;;;;;;;;;5073808;28;20028;-73
2023/02/14 15:25:34;;;;;;;52.08;30.25;;;;;;;;;;5072889;28;20033;-74
2023/02/14 15:28:33;;;;;;;77.75;31.67;;;;;;;;;;5073271;28;20027;-75
2023/02/14 15:31:18;;;;;;;71.68;31.38;;;;;;;;;;5072298;28;20064;-74
2023/02/14 15:34:05;;;;;;;72.43;30.65;;;;;;;;;;5072164;28;20035;-73
2023/02/14 15:36:54;;;;;;;73.45;30.40;;;;;;;;;;5072817;28;20020;-74
2023/02/14 15:39:42;;;;;;;77.07;31.23;;;;;;;;;;5073656;28;20497;-73
2023/02/14 15:42:31;;;;;;;74.53;30.33;;;;;;;;;;5072800;28;20035;-74
2023/02/14 15:45:24;;;;;;;95.97;32.20;;;;;;;;;;5073346;28;20028;-73
2023/02/14 15:48:18;;;;;;;62.72;29.83;;;;;;;;;;5073325;28;20038;-74
2023/02/14 15:51:05;;;;;;;56.45;29.98;;;;;;;;;;5074447;28;20056;-73
2023/02/14 15:53:52;;;;;;;58.10;29.55;;;;;;;;;;5075647;28;20348;-74
2023/02/14 15:56:43;;;;;;;67.32;30.17;;;;;;;;;;5076609;28;20032;-74
2023/02/14 15:59:32;;;;;;;61.55;30.80;;;;;;;;;;5075937;28;20453;-74
2023/02/14 16:02:17;;;;;;;63.22;29.38;;;;;;;;;;5076530;28;20468;-73
2023/02/14 16:05:17;;;;;;;70.93;32.05;;;;;;;;;;5076308;28;20020;-73
2023/02/14 16:08:21;;;;;;;64.30;31.25;;;;;;;;;;5077051;28;20016;-74
2023/02/14 16:11:25;;;;;;;69.38;30.17;;;;;;;;;;5076943;28;20021;-72
2023/02/14 16:14:31;;;;;;;67.50;32.08;;;;;;;;;;5076132;28;20017;-74
2023/02/14 16:17:30;;;;;;;59.13;30.80;;;;;;;;;;5074693;28;20021;-73
2023/02/14 16:20:21;;;;;;;59.30;31.48;;;;;;;;;;5076895;28;20012;-74
2023/02/14 16:23:16;;;;;;;62.72;31.52;;;;;;;;;;5075717;28;20397;-73
2023/02/14 16:26:02;;;;;;;57.80;30.73;;;;;;;;;;5076371;28;20024;-71
2023/02/14 16:28:47;;;;;;;64.32;33.50;;;;;;;;;;5075735;28;20036;-73
2023/02/14 16:31:33;;;;;;;71.95;33.03;;;;;;;;;;5074745;28;20068;-73
2023/02/14 16:34:22;;;;;;;69.97;33.97;;;;;;;;;;5076013;28;20013;-73
2023/02/14 16:37:16;;;;;;;79.63;40.83;;;;;;;;;;5075315;28;20020;-75
2023/02/14 16:40:02;;;;;;;101.85;52.05;;;;;;;;;;5074983;28;20460;-73
2023/02/14 16:42:48;;;;;;;106.40;56.20;;;;;;;;;;5077422;28;20028;-74